sensor_id;sensor_type;location;lat;lon;timestamp;temperature;humidity
3312;DHT22;1668;49.648;8.570;2023-06-22T00:00:49;24.50;99.90
3312;DHT22;1668;49.648;8.570;2023-06-22T00:03:18;24.50;99.90
3312;DHT22;1668;49.648;8.570;2023-06-22T00:05:45;24.50;99.90
3312;DHT22;1668;49.648;8.570;2023-06-22T00:08:12;24.50;99.90
3312;DHT22;1668;49.648;8.570;2023-06-22T00:10:39;24.40;99.90
3312;DHT22;1668;49.648;8.570;2023-06-22T00:13:06;24.40;99.90
3312;DHT22;1668;49.648;8.570;2023-06-22T00:15:36;24.40;99.90
3312;DHT22;1668;49.648;8.570;2023-06-22T00:18:03;24.40;99.90
3312;DHT22;1668;49.648;8.570;2023-06-22T00:20:30;24.40;99.90
3312;DHT22;1668;49.648;8.570;2023-06-22T00:22:59;24.30;94.30
3312;DHT22;1668;49.648;8.570;2023-06-22T00:25:26;24.20;99.90
3312;DHT22;1668;49.648;8.570;2023-06-22T00:27:53;24.20;99.90
3312;DHT22;1668;49.648;8.570;2023-06-22T00:30:20;24.10;99.90
3312;DHT22;1668;49.648;8.570;2023-06-22T00:32:48;23.90;99.90
3312;DHT22;1668;49.648;8.570;2023-06-22T00:35:15;23.80;99.90
3312;DHT22;1668;49.648;8.570;2023-06-22T00:37:42;23.70;99.90
3312;DHT22;1668;49.648;8.570;2023-06-22T00:40:09;23.60;99.90
3312;DHT22;1668;49.648;8.570;2023-06-22T00:42:37;23.60;99.90
3312;DHT22;1668;49.648;8.570;2023-06-22T00:45:06;23.60;99.90
3312;DHT22;1668;49.648;8.570;2023-06-22T00:47:34;23.70;99.90
3312;DHT22;1668;49.648;8.570;2023-06-22T00:50:06;23.80;99.90
3312;DHT22;1668;49.648;8.570;2023-06-22T00:52:34;23.80;99.90
3312;DHT22;1668;49.648;8.570;2023-06-22T00:55:02;23.80;99.90
3312;DHT22;1668;49.648;8.570;2023-06-22T00:57:29;23.80;99.90
3312;DHT22;1668;49.648;8.570;2023-06-22T00:59:57;23.80;99.90
3312;DHT22;1668;49.648;8.570;2023-06-22T01:02:24;23.70;99.90
3312;DHT22;1668;49.648;8.570;2023-06-22T01:04:50;23.70;1.00
3312;DHT22;1668;49.648;8.570;2023-06-22T01:07:22;23.80;99.90
3312;DHT22;1668;49.648;8.570;2023-06-22T01:10:08;23.70;99.90
3312;DHT22;1668;49.648;8.570;2023-06-22T01:12:40;23.70;99.90
3312;DHT22;1668;49.648;8.570;2023-06-22T01:15:13;23.50;99.90
3312;DHT22;1668;49.648;8.570;2023-06-22T01:17:43;23.50;99.90
3312;DHT22;1668;49.648;8.570;2023-06-22T01:20:13;23.40;99.90
3312;DHT22;1668;49.648;8.570;2023-06-22T01:22:56;23.40;45.80
3312;DHT22;1668;49.648;8.570;2023-06-22T01:25:31;23.20;99.90
3312;DHT22;1668;49.648;8.570;2023-06-22T01:28:05;23.20;99.90
3312;DHT22;1668;49.648;8.570;2023-06-22T01:30:34;23.10;99.90
3312;DHT22;1668;49.648;8.570;2023-06-22T01:33:02;23.10;99.90
3312;DHT22;1668;49.648;8.570;2023-06-22T01:35:30;23.10;99.90
3312;DHT22;1668;49.648;8.570;2023-06-22T01:37:57;23.10;99.90
3312;DHT22;1668;49.648;8.570;2023-06-22T01:40:24;23.00;99.90
3312;DHT22;1668;49.648;8.570;2023-06-22T01:42:52;23.00;99.90
3312;DHT22;1668;49.648;8.570;2023-06-22T01:45:20;23.00;99.90
3312;DHT22;1668;49.648;8.570;2023-06-22T01:47:49;22.90;99.90
3312;DHT22;1668;49.648;8.570;2023-06-22T01:50:17;23.00;99.90
3312;DHT22;1668;49.648;8.570;2023-06-22T01:52:43;23.00;99.90
3312;DHT22;1668;49.648;8.570;2023-06-22T01:55:11;23.10;99.90
3312;DHT22;1668;49.648;8.570;2023-06-22T01:57:38;23.10;99.90
3312;DHT22;1668;49.648;8.570;2023-06-22T02:00:09;23.10;99.90
3312;DHT22;1668;49.648;8.570;2023-06-22T02:02:42;23.10;99.90
3312;DHT22;1668;49.648;8.570;2023-06-22T02:05:12;22.90;99.90
3312;DHT22;1668;49.648;8.570;2023-06-22T02:07:46;22.90;99.90
3312;DHT22;1668;49.648;8.570;2023-06-22T02:10:15;23.00;99.90
3312;DHT22;1668;49.648;8.570;2023-06-22T02:12:43;22.80;99.90
3312;DHT22;1668;49.648;8.570;2023-06-22T02:15:11;22.70;99.90
3312;DHT22;1668;49.648;8.570;2023-06-22T02:17:40;22.60;99.90
3312;DHT22;1668;49.648;8.570;2023-06-22T02:20:13;22.60;99.90
3312;DHT22;1668;49.648;8.570;2023-06-22T02:22:41;22.60;99.90
3312;DHT22;1668;49.648;8.570;2023-06-22T02:25:08;22.50;99.90
3312;DHT22;1668;49.648;8.570;2023-06-22T02:27:35;22.60;99.90
3312;DHT22;1668;49.648;8.570;2023-06-22T02:30:02;22.60;99.90
3312;DHT22;1668;49.648;8.570;2023-06-22T02:32:29;22.60;99.90
3312;DHT22;1668;49.648;8.570;2023-06-22T02:34:56;22.60;99.90
3312;DHT22;1668;49.648;8.570;2023-06-22T02:37:24;22.60;99.90
3312;DHT22;1668;49.648;8.570;2023-06-22T02:39:55;22.60;99.90
3312;DHT22;1668;49.648;8.570;2023-06-22T02:42:21;22.60;99.90
3312;DHT22;1668;49.648;8.570;2023-06-22T02:44:48;22.60;99.90
3312;DHT22;1668;49.648;8.570;2023-06-22T02:47:15;22.50;99.90
3312;DHT22;1668;49.648;8.570;2023-06-22T02:49:42;22.40;99.90
3312;DHT22;1668;49.648;8.570;2023-06-22T02:52:10;22.40;99.90
3312;DHT22;1668;49.648;8.570;2023-06-22T02:54:38;22.40;99.90
3312;DHT22;1668;49.648;8.570;2023-06-22T02:57:05;22.40;99.90
3312;DHT22;1668;49.648;8.570;2023-06-22T02:59:32;22.50;99.90
3312;DHT22;1668;49.648;8.570;2023-06-22T03:01:59;22.40;99.90
3312;DHT22;1668;49.648;8.570;2023-06-22T03:04:26;22.40;99.90
3312;DHT22;1668;49.648;8.570;2023-06-22T03:06:53;22.40;99.90
3312;DHT22;1668;49.648;8.570;2023-06-22T03:09:20;22.20;99.90
3312;DHT22;1668;49.648;8.570;2023-06-22T03:11:48;22.30;99.90
3312;DHT22;1668;49.648;8.570;2023-06-22T03:14:15;22.30;99.90
3312;DHT22;1668;49.648;8.570;2023-06-22T03:16:42;22.30;99.90
3312;DHT22;1668;49.648;8.570;2023-06-22T03:19:09;22.30;99.90
3312;DHT22;1668;49.648;8.570;2023-06-22T03:21:37;22.20;99.90
3312;DHT22;1668;49.648;8.570;2023-06-22T03:24:05;22.20;99.90
3312;DHT22;1668;49.648;8.570;2023-06-22T03:26:32;22.10;99.90
3312;DHT22;1668;49.648;8.570;2023-06-22T03:29:01;22.20;99.90
3312;DHT22;1668;49.648;8.570;2023-06-22T03:31:28;22.20;99.90
3312;DHT22;1668;49.648;8.570;2023-06-22T03:33:55;22.20;99.90
3312;DHT22;1668;49.648;8.570;2023-06-22T03:36:22;22.10;99.90
3312;DHT22;1668;49.648;8.570;2023-06-22T03:38:50;22.10;99.90
3312;DHT22;1668;49.648;8.570;2023-06-22T03:41:17;22.10;99.90
3312;DHT22;1668;49.648;8.570;2023-06-22T03:43:44;22.10;99.90
3312;DHT22;1668;49.648;8.570;2023-06-22T03:46:12;22.10;99.90
3312;DHT22;1668;49.648;8.570;2023-06-22T03:48:39;22.10;99.90
3312;DHT22;1668;49.648;8.570;2023-06-22T03:51:06;22.10;99.90
3312;DHT22;1668;49.648;8.570;2023-06-22T03:53:33;22.10;99.90
3312;DHT22;1668;49.648;8.570;2023-06-22T03:56:03;22.10;99.90
3312;DHT22;1668;49.648;8.570;2023-06-22T03:58:30;22.10;99.90
3312;DHT22;1668;49.648;8.570;2023-06-22T04:00:58;22.10;99.90
3312;DHT22;1668;49.648;8.570;2023-06-22T04:03:27;22.10;99.90
3312;DHT22;1668;49.648;8.570;2023-06-22T04:05:54;22.10;99.90
3312;DHT22;1668;49.648;8.570;2023-06-22T04:08:21;22.10;99.90
3312;DHT22;1668;49.648;8.570;2023-06-22T04:10:48;22.10;99.90
3312;DHT22;1668;49.648;8.570;2023-06-22T04:13:15;22.00;99.90
3312;DHT22;1668;49.648;8.570;2023-06-22T04:15:41;22.00;99.90
3312;DHT22;1668;49.648;8.570;2023-06-22T04:18:08;22.00;99.90
3312;DHT22;1668;49.648;8.570;2023-06-22T04:20:37;22.00;99.90
3312;DHT22;1668;49.648;8.570;2023-06-22T04:23:04;22.00;99.90
3312;DHT22;1668;49.648;8.570;2023-06-22T04:25:30;22.00;99.90
3312;DHT22;1668;49.648;8.570;2023-06-22T04:27:57;22.00;99.90
3312;DHT22;1668;49.648;8.570;2023-06-22T04:30:24;22.00;99.90
3312;DHT22;1668;49.648;8.570;2023-06-22T04:32:51;22.00;99.90
3312;DHT22;1668;49.648;8.570;2023-06-22T04:35:23;21.90;99.90
3312;DHT22;1668;49.648;8.570;2023-06-22T04:37:53;22.00;99.90
3312;DHT22;1668;49.648;8.570;2023-06-22T04:40:21;22.00;99.90
3312;DHT22;1668;49.648;8.570;2023-06-22T04:42:48;22.00;99.90
3312;DHT22;1668;49.648;8.570;2023-06-22T04:45:19;22.00;99.90
3312;DHT22;1668;49.648;8.570;2023-06-22T04:47:46;22.00;99.90
3312;DHT22;1668;49.648;8.570;2023-06-22T04:50:13;22.00;99.90
3312;DHT22;1668;49.648;8.570;2023-06-22T04:52:40;22.00;99.90
3312;DHT22;1668;49.648;8.570;2023-06-22T04:55:09;22.00;99.90
3312;DHT22;1668;49.648;8.570;2023-06-22T04:57:36;22.00;99.90
3312;DHT22;1668;49.648;8.570;2023-06-22T05:00:05;21.90;99.90
3312;DHT22;1668;49.648;8.570;2023-06-22T05:02:38;21.90;99.90
3312;DHT22;1668;49.648;8.570;2023-06-22T05:05:05;21.90;99.90
3312;DHT22;1668;49.648;8.570;2023-06-22T05:07:33;21.90;99.90
3312;DHT22;1668;49.648;8.570;2023-06-22T05:10:00;22.00;99.90
3312;DHT22;1668;49.648;8.570;2023-06-22T05:12:29;22.00;99.90
3312;DHT22;1668;49.648;8.570;2023-06-22T05:14:57;22.00;99.90
3312;DHT22;1668;49.648;8.570;2023-06-22T05:17:24;22.10;99.90
3312;DHT22;1668;49.648;8.570;2023-06-22T05:19:51;22.00;99.90
3312;DHT22;1668;49.648;8.570;2023-06-22T05:22:18;22.10;99.90
3312;DHT22;1668;49.648;8.570;2023-06-22T05:24:45;22.10;99.90
3312;DHT22;1668;49.648;8.570;2023-06-22T05:27:12;22.10;99.90
3312;DHT22;1668;49.648;8.570;2023-06-22T05:29:40;22.20;99.90
3312;DHT22;1668;49.648;8.570;2023-06-22T05:32:08;22.20;99.90
3312;DHT22;1668;49.648;8.570;2023-06-22T05:34:35;22.30;99.90
3312;DHT22;1668;49.648;8.570;2023-06-22T05:37:02;22.20;99.90
3312;DHT22;1668;49.648;8.570;2023-06-22T05:39:29;22.20;99.90
3312;DHT22;1668;49.648;8.570;2023-06-22T05:41:56;22.30;99.90
3312;DHT22;1668;49.648;8.570;2023-06-22T05:44:23;22.30;99.90
3312;DHT22;1668;49.648;8.570;2023-06-22T05:46:51;22.40;99.90
3312;DHT22;1668;49.648;8.570;2023-06-22T05:49:18;22.40;99.90
3312;DHT22;1668;49.648;8.570;2023-06-22T05:51:47;22.40;99.90
3312;DHT22;1668;49.648;8.570;2023-06-22T05:54:14;22.50;99.90
3312;DHT22;1668;49.648;8.570;2023-06-22T05:56:43;22.50;99.90
3312;DHT22;1668;49.648;8.570;2023-06-22T05:59:10;22.60;99.90
3312;DHT22;1668;49.648;8.570;2023-06-22T06:01:37;22.60;99.90
3312;DHT22;1668;49.648;8.570;2023-06-22T06:04:06;22.70;99.90
3312;DHT22;1668;49.648;8.570;2023-06-22T06:06:34;22.80;99.90
3312;DHT22;1668;49.648;8.570;2023-06-22T06:09:03;22.80;99.90
3312;DHT22;1668;49.648;8.570;2023-06-22T06:11:30;22.80;99.90
3312;DHT22;1668;49.648;8.570;2023-06-22T06:13:57;22.90;99.90
3312;DHT22;1668;49.648;8.570;2023-06-22T06:16:23;22.90;99.90
3312;DHT22;1668;49.648;8.570;2023-06-22T06:18:50;22.90;99.90
3312;DHT22;1668;49.648;8.570;2023-06-22T06:21:20;23.00;99.90
3312;DHT22;1668;49.648;8.570;2023-06-22T06:23:47;23.10;99.90
3312;DHT22;1668;49.648;8.570;2023-06-22T06:26:13;23.20;99.90
3312;DHT22;1668;49.648;8.570;2023-06-22T06:28:42;23.20;99.90
3312;DHT22;1668;49.648;8.570;2023-06-22T06:31:08;23.20;99.90
3312;DHT22;1668;49.648;8.570;2023-06-22T06:33:35;23.30;99.90
3312;DHT22;1668;49.648;8.570;2023-06-22T06:36:02;23.40;1.00
3312;DHT22;1668;49.648;8.570;2023-06-22T06:38:31;23.40;99.90
3312;DHT22;1668;49.648;8.570;2023-06-22T06:40:58;23.50;99.90
3312;DHT22;1668;49.648;8.570;2023-06-22T06:43:25;23.60;99.90
3312;DHT22;1668;49.648;8.570;2023-06-22T06:45:51;23.60;99.90
3312;DHT22;1668;49.648;8.570;2023-06-22T06:48:18;23.70;99.90
3312;DHT22;1668;49.648;8.570;2023-06-22T06:50:45;23.70;99.90
3312;DHT22;1668;49.648;8.570;2023-06-22T06:53:12;23.80;99.90
3312;DHT22;1668;49.648;8.570;2023-06-22T06:55:40;23.90;99.90
3312;DHT22;1668;49.648;8.570;2023-06-22T06:58:06;24.00;99.90
3312;DHT22;1668;49.648;8.570;2023-06-22T07:00:35;24.10;99.90
3312;DHT22;1668;49.648;8.570;2023-06-22T07:03:02;24.20;99.90
3312;DHT22;1668;49.648;8.570;2023-06-22T07:05:29;24.20;99.90
3312;DHT22;1668;49.648;8.570;2023-06-22T07:07:56;24.20;99.90
3312;DHT22;1668;49.648;8.570;2023-06-22T07:10:23;24.20;99.90
3312;DHT22;1668;49.648;8.570;2023-06-22T07:12:51;24.20;99.90
3312;DHT22;1668;49.648;8.570;2023-06-22T07:15:18;24.20;99.90
3312;DHT22;1668;49.648;8.570;2023-06-22T07:17:45;24.30;99.90
3312;DHT22;1668;49.648;8.570;2023-06-22T07:20:12;24.30;99.90
3312;DHT22;1668;49.648;8.570;2023-06-22T07:22:39;24.30;99.90
3312;DHT22;1668;49.648;8.570;2023-06-22T07:25:07;24.40;99.90
3312;DHT22;1668;49.648;8.570;2023-06-22T07:27:36;24.40;99.90
3312;DHT22;1668;49.648;8.570;2023-06-22T07:30:06;24.40;99.90
3312;DHT22;1668;49.648;8.570;2023-06-22T07:32:33;24.50;99.90
3312;DHT22;1668;49.648;8.570;2023-06-22T07:35:00;24.60;99.90
3312;DHT22;1668;49.648;8.570;2023-06-22T07:37:27;24.60;99.90
3312;DHT22;1668;49.648;8.570;2023-06-22T07:39:54;24.60;99.90
3312;DHT22;1668;49.648;8.570;2023-06-22T07:42:24;24.70;99.90
3312;DHT22;1668;49.648;8.570;2023-06-22T07:44:51;24.80;99.90
3312;DHT22;1668;49.648;8.570;2023-06-22T07:47:19;24.90;99.90
3312;DHT22;1668;49.648;8.570;2023-06-22T07:49:46;24.90;99.90
3312;DHT22;1668;49.648;8.570;2023-06-22T07:52:12;25.00;99.90
3312;DHT22;1668;49.648;8.570;2023-06-22T07:54:39;25.00;99.90
3312;DHT22;1668;49.648;8.570;2023-06-22T07:57:06;25.00;99.90
3312;DHT22;1668;49.648;8.570;2023-06-22T07:59:33;25.00;99.90
3312;DHT22;1668;49.648;8.570;2023-06-22T08:02:01;25.10;99.90
3312;DHT22;1668;49.648;8.570;2023-06-22T08:04:30;25.20;99.90
3312;DHT22;1668;49.648;8.570;2023-06-22T08:06:59;25.20;99.90
3312;DHT22;1668;49.648;8.570;2023-06-22T08:09:28;25.20;99.90
3312;DHT22;1668;49.648;8.570;2023-06-22T08:11:55;25.30;99.90
3312;DHT22;1668;49.648;8.570;2023-06-22T08:14:22;25.30;99.90
3312;DHT22;1668;49.648;8.570;2023-06-22T08:16:48;25.50;99.90
3312;DHT22;1668;49.648;8.570;2023-06-22T08:19:15;25.60;99.90
3312;DHT22;1668;49.648;8.570;2023-06-22T08:21:44;25.60;99.90
3312;DHT22;1668;49.648;8.570;2023-06-22T08:24:11;25.70;99.90
3312;DHT22;1668;49.648;8.570;2023-06-22T08:26:38;25.80;99.90
3312;DHT22;1668;49.648;8.570;2023-06-22T08:29:05;25.90;99.90
3312;DHT22;1668;49.648;8.570;2023-06-22T08:31:32;25.90;99.90
3312;DHT22;1668;49.648;8.570;2023-06-22T08:34:00;26.10;99.90
3312;DHT22;1668;49.648;8.570;2023-06-22T08:36:26;26.10;99.90
3312;DHT22;1668;49.648;8.570;2023-06-22T08:39:02;26.20;99.90
3312;DHT22;1668;49.648;8.570;2023-06-22T08:41:28;26.20;99.90
3312;DHT22;1668;49.648;8.570;2023-06-22T08:43:56;26.40;99.90
3312;DHT22;1668;49.648;8.570;2023-06-22T08:46:23;26.40;99.90
3312;DHT22;1668;49.648;8.570;2023-06-22T08:48:55;26.40;99.30
3312;DHT22;1668;49.648;8.570;2023-06-22T08:51:22;26.50;99.90
3312;DHT22;1668;49.648;8.570;2023-06-22T08:53:49;26.70;98.80
3312;DHT22;1668;49.648;8.570;2023-06-22T08:56:17;26.90;96.60
3312;DHT22;1668;49.648;8.570;2023-06-22T08:58:44;27.00;95.60
3312;DHT22;1668;49.648;8.570;2023-06-22T09:01:11;27.00;95.90
3312;DHT22;1668;49.648;8.570;2023-06-22T09:03:38;27.00;95.20
3312;DHT22;1668;49.648;8.570;2023-06-22T09:06:05;27.10;95.40
3312;DHT22;1668;49.648;8.570;2023-06-22T09:08:32;27.10;97.60
3312;DHT22;1668;49.648;8.570;2023-06-22T09:10:59;27.20;95.70
3312;DHT22;1668;49.648;8.570;2023-06-22T09:15:55;27.40;92.60
3312;DHT22;1668;49.648;8.570;2023-06-22T09:18:22;27.40;93.40
3312;DHT22;1668;49.648;8.570;2023-06-22T09:20:49;27.60;93.10
3312;DHT22;1668;49.648;8.570;2023-06-22T09:23:16;27.60;92.20
3312;DHT22;1668;49.648;8.570;2023-06-22T09:25:43;27.50;92.10
3312;DHT22;1668;49.648;8.570;2023-06-22T09:28:10;27.50;94.90
3312;DHT22;1668;49.648;8.570;2023-06-22T09:30:38;27.50;93.20
3312;DHT22;1668;49.648;8.570;2023-06-22T09:33:05;27.50;91.90
3312;DHT22;1668;49.648;8.570;2023-06-22T09:35:31;27.50;92.20
3312;DHT22;1668;49.648;8.570;2023-06-22T09:37:59;27.60;91.50
3312;DHT22;1668;49.648;8.570;2023-06-22T09:40:26;27.60;91.50
3312;DHT22;1668;49.648;8.570;2023-06-22T09:42:53;27.70;90.50
3312;DHT22;1668;49.648;8.570;2023-06-22T09:45:19;27.80;91.50
3312;DHT22;1668;49.648;8.570;2023-06-22T09:47:48;27.90;87.80
3312;DHT22;1668;49.648;8.570;2023-06-22T09:50:14;28.00;1.00
3312;DHT22;1668;49.648;8.570;2023-06-22T09:52:41;28.00;1.00
3312;DHT22;1668;49.648;8.570;2023-06-22T09:55:10;28.00;99.90
3312;DHT22;1668;49.648;8.570;2023-06-22T09:57:37;28.00;1.00
3312;DHT22;1668;49.648;8.570;2023-06-22T10:00:04;28.20;61.70
3312;DHT22;1668;49.648;8.570;2023-06-22T10:02:34;28.30;1.00
3312;DHT22;1668;49.648;8.570;2023-06-22T10:05:02;28.40;1.00
3312;DHT22;1668;49.648;8.570;2023-06-22T10:07:29;28.40;1.00
3312;DHT22;1668;49.648;8.570;2023-06-22T10:09:56;28.40;1.00
3312;DHT22;1668;49.648;8.570;2023-06-22T10:12:23;28.60;1.00
3312;DHT22;1668;49.648;8.570;2023-06-22T10:14:49;28.80;1.00
3312;DHT22;1668;49.648;8.570;2023-06-22T10:17:16;28.80;1.00
3312;DHT22;1668;49.648;8.570;2023-06-22T10:19:43;28.90;1.00
3312;DHT22;1668;49.648;8.570;2023-06-22T10:22:11;28.90;1.00
3312;DHT22;1668;49.648;8.570;2023-06-22T10:24:38;28.90;1.00
3312;DHT22;1668;49.648;8.570;2023-06-22T10:27:09;29.00;1.00
3312;DHT22;1668;49.648;8.570;2023-06-22T10:29:37;29.10;1.00
3312;DHT22;1668;49.648;8.570;2023-06-22T10:32:05;29.10;1.00
3312;DHT22;1668;49.648;8.570;2023-06-22T10:34:32;29.10;1.00
3312;DHT22;1668;49.648;8.570;2023-06-22T10:36:59;29.20;1.00
3312;DHT22;1668;49.648;8.570;2023-06-22T10:39:27;29.30;1.00
3312;DHT22;1668;49.648;8.570;2023-06-22T10:41:54;29.30;1.00
3312;DHT22;1668;49.648;8.570;2023-06-22T10:44:22;29.50;1.00
3312;DHT22;1668;49.648;8.570;2023-06-22T10:46:49;29.60;1.00
3312;DHT22;1668;49.648;8.570;2023-06-22T10:49:16;29.70;1.00
3312;DHT22;1668;49.648;8.570;2023-06-22T10:51:43;29.70;1.00
3312;DHT22;1668;49.648;8.570;2023-06-22T10:54:09;29.90;1.00
3312;DHT22;1668;49.648;8.570;2023-06-22T10:56:40;30.00;1.00
3312;DHT22;1668;49.648;8.570;2023-06-22T10:59:07;30.10;1.00
3312;DHT22;1668;49.648;8.570;2023-06-22T11:01:33;30.20;1.00
3312;DHT22;1668;49.648;8.570;2023-06-22T11:04:00;30.20;1.00
3312;DHT22;1668;49.648;8.570;2023-06-22T11:06:27;30.30;1.00
3312;DHT22;1668;49.648;8.570;2023-06-22T11:08:54;30.40;1.00
3312;DHT22;1668;49.648;8.570;2023-06-22T11:11:21;30.60;1.00
3312;DHT22;1668;49.648;8.570;2023-06-22T11:13:49;30.70;1.00
3312;DHT22;1668;49.648;8.570;2023-06-22T11:16:15;30.80;1.00
3312;DHT22;1668;49.648;8.570;2023-06-22T11:18:42;30.80;1.00
3312;DHT22;1668;49.648;8.570;2023-06-22T11:21:09;30.90;1.00
3312;DHT22;1668;49.648;8.570;2023-06-22T11:23:36;30.80;1.00
3312;DHT22;1668;49.648;8.570;2023-06-22T11:26:02;30.80;1.00
3312;DHT22;1668;49.648;8.570;2023-06-22T11:28:29;30.80;1.00
3312;DHT22;1668;49.648;8.570;2023-06-22T11:30:57;30.90;1.00
3312;DHT22;1668;49.648;8.570;2023-06-22T11:33:24;30.90;1.00
3312;DHT22;1668;49.648;8.570;2023-06-22T11:35:51;30.90;1.00
3312;DHT22;1668;49.648;8.570;2023-06-22T11:38:18;30.90;1.00
3312;DHT22;1668;49.648;8.570;2023-06-22T11:40:44;31.00;1.00
3312;DHT22;1668;49.648;8.570;2023-06-22T11:45:40;31.10;1.00
3312;DHT22;1668;49.648;8.570;2023-06-22T11:48:06;31.20;1.00
3312;DHT22;1668;49.648;8.570;2023-06-22T11:50:34;31.30;1.00
3312;DHT22;1668;49.648;8.570;2023-06-22T11:53:01;31.20;1.00
3312;DHT22;1668;49.648;8.570;2023-06-22T11:55:29;31.10;1.00
3312;DHT22;1668;49.648;8.570;2023-06-22T11:57:57;31.10;1.00
3312;DHT22;1668;49.648;8.570;2023-06-22T12:00:27;31.10;99.90
3312;DHT22;1668;49.648;8.570;2023-06-22T12:02:56;31.00;1.00
3312;DHT22;1668;49.648;8.570;2023-06-22T12:05:23;31.00;1.00
3312;DHT22;1668;49.648;8.570;2023-06-22T12:07:52;31.00;1.00
3312;DHT22;1668;49.648;8.570;2023-06-22T12:10:20;31.00;1.00
3312;DHT22;1668;49.648;8.570;2023-06-22T12:12:47;31.10;1.00
3312;DHT22;1668;49.648;8.570;2023-06-22T12:15:13;31.10;1.00
3312;DHT22;1668;49.648;8.570;2023-06-22T12:17:41;31.20;1.00
3312;DHT22;1668;49.648;8.570;2023-06-22T12:20:10;31.20;1.00
3312;DHT22;1668;49.648;8.570;2023-06-22T12:22:38;31.20;1.00
3312;DHT22;1668;49.648;8.570;2023-06-22T12:25:06;31.20;1.00
3312;DHT22;1668;49.648;8.570;2023-06-22T12:27:34;31.30;1.00
3312;DHT22;1668;49.648;8.570;2023-06-22T12:30:01;31.30;1.00
3312;DHT22;1668;49.648;8.570;2023-06-22T12:32:29;31.20;1.00
3312;DHT22;1668;49.648;8.570;2023-06-22T12:34:56;31.20;1.00
3312;DHT22;1668;49.648;8.570;2023-06-22T12:37:25;31.30;1.00
3312;DHT22;1668;49.648;8.570;2023-06-22T12:39:53;31.20;1.00
3312;DHT22;1668;49.648;8.570;2023-06-22T12:42:21;31.20;1.00
3312;DHT22;1668;49.648;8.570;2023-06-22T12:44:48;31.30;1.00
3312;DHT22;1668;49.648;8.570;2023-06-22T12:47:15;31.40;1.00
3312;DHT22;1668;49.648;8.570;2023-06-22T12:49:42;31.40;1.00
3312;DHT22;1668;49.648;8.570;2023-06-22T12:52:10;31.50;1.00
3312;DHT22;1668;49.648;8.570;2023-06-22T12:54:39;31.60;1.00
3312;DHT22;1668;49.648;8.570;2023-06-22T12:57:06;31.50;1.00
3312;DHT22;1668;49.648;8.570;2023-06-22T12:59:34;31.50;1.00
3312;DHT22;1668;49.648;8.570;2023-06-22T13:02:01;31.40;1.00
3312;DHT22;1668;49.648;8.570;2023-06-22T13:04:28;31.40;1.00
3312;DHT22;1668;49.648;8.570;2023-06-22T13:06:55;31.50;1.00
3312;DHT22;1668;49.648;8.570;2023-06-22T13:09:22;31.50;1.00
3312;DHT22;1668;49.648;8.570;2023-06-22T13:11:50;31.60;1.00
3312;DHT22;1668;49.648;8.570;2023-06-22T13:14:18;31.70;1.00
3312;DHT22;1668;49.648;8.570;2023-06-22T13:16:44;31.70;1.00
3312;DHT22;1668;49.648;8.570;2023-06-22T13:19:11;31.80;1.00
3312;DHT22;1668;49.648;8.570;2023-06-22T13:21:38;31.80;1.00
3312;DHT22;1668;49.648;8.570;2023-06-22T13:24:06;31.90;1.00
3312;DHT22;1668;49.648;8.570;2023-06-22T13:26:33;31.90;99.90
3312;DHT22;1668;49.648;8.570;2023-06-22T13:29:02;32.00;99.90
3312;DHT22;1668;49.648;8.570;2023-06-22T13:31:28;32.10;1.00
3312;DHT22;1668;49.648;8.570;2023-06-22T13:33:55;32.00;1.00
3312;DHT22;1668;49.648;8.570;2023-06-22T13:36:23;32.00;99.90
3312;DHT22;1668;49.648;8.570;2023-06-22T13:38:49;32.10;99.90
3312;DHT22;1668;49.648;8.570;2023-06-22T13:41:16;32.20;99.90
3312;DHT22;1668;49.648;8.570;2023-06-22T13:43:43;32.30;99.90
3312;DHT22;1668;49.648;8.570;2023-06-22T13:46:12;32.40;99.90
3312;DHT22;1668;49.648;8.570;2023-06-22T13:48:39;32.50;99.90
3312;DHT22;1668;49.648;8.570;2023-06-22T13:51:06;32.60;99.90
3312;DHT22;1668;49.648;8.570;2023-06-22T13:53:32;32.70;99.90
3312;DHT22;1668;49.648;8.570;2023-06-22T13:55:59;32.80;99.90
3312;DHT22;1668;49.648;8.570;2023-06-22T13:58:26;32.90;99.90
3312;DHT22;1668;49.648;8.570;2023-06-22T14:00:53;32.90;99.90
3312;DHT22;1668;49.648;8.570;2023-06-22T14:03:22;33.10;99.90
3312;DHT22;1668;49.648;8.570;2023-06-22T14:05:48;33.20;99.90
3312;DHT22;1668;49.648;8.570;2023-06-22T14:08:15;33.20;99.90
3312;DHT22;1668;49.648;8.570;2023-06-22T14:10:43;33.20;99.90
3312;DHT22;1668;49.648;8.570;2023-06-22T14:13:10;33.10;99.90
3312;DHT22;1668;49.648;8.570;2023-06-22T14:15:38;32.90;99.90
3312;DHT22;1668;49.648;8.570;2023-06-22T14:18:06;32.80;99.90
3312;DHT22;1668;49.648;8.570;2023-06-22T14:20:34;32.90;99.90
3312;DHT22;1668;49.648;8.570;2023-06-22T14:23:01;33.00;99.90
3312;DHT22;1668;49.648;8.570;2023-06-22T14:25:28;32.80;99.90
3312;DHT22;1668;49.648;8.570;2023-06-22T14:27:55;32.50;99.90
3312;DHT22;1668;49.648;8.570;2023-06-22T14:30:22;32.20;99.90
3312;DHT22;1668;49.648;8.570;2023-06-22T14:32:49;32.10;99.90
3312;DHT22;1668;49.648;8.570;2023-06-22T14:35:16;31.90;99.90
3312;DHT22;1668;49.648;8.570;2023-06-22T14:37:45;31.80;99.90
3312;DHT22;1668;49.648;8.570;2023-06-22T14:40:14;31.70;99.90
3312;DHT22;1668;49.648;8.570;2023-06-22T14:42:40;31.60;99.90
3312;DHT22;1668;49.648;8.570;2023-06-22T14:45:08;31.60;99.90
3312;DHT22;1668;49.648;8.570;2023-06-22T14:47:36;31.60;99.90
3312;DHT22;1668;49.648;8.570;2023-06-22T14:50:04;31.60;99.90
3312;DHT22;1668;49.648;8.570;2023-06-22T14:52:32;31.60;99.90
3312;DHT22;1668;49.648;8.570;2023-06-22T14:55:00;31.70;99.90
3312;DHT22;1668;49.648;8.570;2023-06-22T14:57:27;31.70;99.90
3312;DHT22;1668;49.648;8.570;2023-06-22T14:59:54;31.80;99.90
3312;DHT22;1668;49.648;8.570;2023-06-22T15:02:21;31.80;99.90
3312;DHT22;1668;49.648;8.570;2023-06-22T15:04:48;31.90;99.90
3312;DHT22;1668;49.648;8.570;2023-06-22T15:07:15;31.80;99.90
3312;DHT22;1668;49.648;8.570;2023-06-22T15:09:42;31.90;99.90
3312;DHT22;1668;49.648;8.570;2023-06-22T15:12:12;31.90;99.90
3312;DHT22;1668;49.648;8.570;2023-06-22T15:14:39;31.90;99.90
3312;DHT22;1668;49.648;8.570;2023-06-22T15:17:07;31.80;99.90
3312;DHT22;1668;49.648;8.570;2023-06-22T15:19:35;31.80;99.90
3312;DHT22;1668;49.648;8.570;2023-06-22T15:22:04;31.70;99.90
3312;DHT22;1668;49.648;8.570;2023-06-22T15:24:32;31.60;99.90
3312;DHT22;1668;49.648;8.570;2023-06-22T15:26:58;31.60;99.90
3312;DHT22;1668;49.648;8.570;2023-06-22T15:29:27;31.50;99.90
3312;DHT22;1668;49.648;8.570;2023-06-22T15:31:59;31.60;99.90
3312;DHT22;1668;49.648;8.570;2023-06-22T15:34:26;31.70;99.90
3312;DHT22;1668;49.648;8.570;2023-06-22T15:36:54;31.80;99.90
3312;DHT22;1668;49.648;8.570;2023-06-22T15:39:21;31.90;99.90
3312;DHT22;1668;49.648;8.570;2023-06-22T15:41:50;31.80;99.90
3312;DHT22;1668;49.648;8.570;2023-06-22T15:44:20;31.60;99.90
3312;DHT22;1668;49.648;8.570;2023-06-22T15:46:48;31.50;99.90
3312;DHT22;1668;49.648;8.570;2023-06-22T15:49:15;31.30;99.90
3312;DHT22;1668;49.648;8.570;2023-06-22T15:51:43;31.10;99.90
3312;DHT22;1668;49.648;8.570;2023-06-22T15:54:10;31.10;99.90
3312;DHT22;1668;49.648;8.570;2023-06-22T15:56:38;31.00;99.90
3312;DHT22;1668;49.648;8.570;2023-06-22T15:59:05;30.90;1.00
3312;DHT22;1668;49.648;8.570;2023-06-22T16:01:32;30.90;99.90
3312;DHT22;1668;49.648;8.570;2023-06-22T16:04:00;30.80;99.90
3312;DHT22;1668;49.648;8.570;2023-06-22T16:06:28;30.80;1.00
3312;DHT22;1668;49.648;8.570;2023-06-22T16:08:55;30.80;1.00
3312;DHT22;1668;49.648;8.570;2023-06-22T16:11:22;30.80;99.90